sensor_id;sensor_type;location;lat;lon;timestamp;P1;durP1;ratioP1;P2;durP2;ratioP2
30553;SDS011;17335;50.720;7.452;2022-11-21T00:00:09;15.00;;;2.92;;
30553;SDS011;17335;50.720;7.452;2022-11-21T00:02:36;10.85;;;3.25;;
30553;SDS011;17335;50.720;7.452;2022-11-21T00:05:03;12.73;;;2.83;;
30553;SDS011;17335;50.720;7.452;2022-11-21T00:07:29;8.05;;;2.53;;
30553;SDS011;17335;50.720;7.452;2022-11-21T00:09:56;10.77;;;3.17;;
30553;SDS011;17335;50.720;7.452;2022-11-21T00:12:22;7.55;;;2.97;;
30553;SDS011;17335;50.720;7.452;2022-11-21T00:14:49;12.50;;;3.13;;
30553;SDS011;17335;50.720;7.452;2022-11-21T00:17:15;14.50;;;3.08;;
30553;SDS011;17335;50.720;7.452;2022-11-21T00:19:43;13.80;;;3.15;;
30553;SDS011;17335;50.720;7.452;2022-11-21T00:22:09;12.00;;;2.88;;
30553;SDS011;17335;50.720;7.452;2022-11-21T00:24:36;17.50;;;3.17;;
30553;SDS011;17335;50.720;7.452;2022-11-21T00:27:02;20.05;;;4.25;;
30553;SDS011;17335;50.720;7.452;2022-11-21T00:29:29;13.18;;;2.80;;
30553;SDS011;17335;50.720;7.452;2022-11-21T00:31:55;7.88;;;2.67;;
30553;SDS011;17335;50.720;7.452;2022-11-21T00:34:22;14.73;;;3.55;;
30553;SDS011;17335;50.720;7.452;2022-11-21T00:36:49;13.13;;;3.83;;
30553;SDS011;17335;50.720;7.452;2022-11-21T00:39:16;24.50;;;3.28;;
30553;SDS011;17335;50.720;7.452;2022-11-21T00:41:42;12.40;;;3.70;;
30553;SDS011;17335;50.720;7.452;2022-11-21T00:44:09;17.65;;;3.75;;
30553;SDS011;17335;50.720;7.452;2022-11-21T00:46:35;11.63;;;2.97;;
30553;SDS011;17335;50.720;7.452;2022-11-21T00:49:02;16.15;;;2.75;;
30553;SDS011;17335;50.720;7.452;2022-11-21T00:51:29;11.05;;;2.83;;
30553;SDS011;17335;50.720;7.452;2022-11-21T00:53:56;21.15;;;4.22;;
30553;SDS011;17335;50.720;7.452;2022-11-21T00:56:22;14.88;;;2.95;;
30553;SDS011;17335;50.720;7.452;2022-11-21T00:58:48;17.50;;;3.28;;
30553;SDS011;17335;50.720;7.452;2022-11-21T01:01:15;13.38;;;3.42;;
30553;SDS011;17335;50.720;7.452;2022-11-21T01:03:42;18.42;;;2.67;;
30553;SDS011;17335;50.720;7.452;2022-11-21T01:06:09;12.02;;;3.38;;
30553;SDS011;17335;50.720;7.452;2022-11-21T01:08:38;19.77;;;2.63;;
30553;SDS011;17335;50.720;7.452;2022-11-21T01:11:08;13.40;;;2.75;;
30553;SDS011;17335;50.720;7.452;2022-11-21T01:13:36;10.95;;;2.70;;
30553;SDS011;17335;50.720;7.452;2022-11-21T01:16:05;14.00;;;2.50;;
30553;SDS011;17335;50.720;7.452;2022-11-21T01:18:33;12.27;;;2.50;;
30553;SDS011;17335;50.720;7.452;2022-11-21T01:21:01;13.88;;;2.60;;
30553;SDS011;17335;50.720;7.452;2022-11-21T01:23:29;16.88;;;2.60;;
30553;SDS011;17335;50.720;7.452;2022-11-21T01:26:07;12.90;;;2.58;;
30553;SDS011;17335;50.720;7.452;2022-11-21T01:28:38;21.63;;;2.80;;
30553;SDS011;17335;50.720;7.452;2022-11-21T01:31:18;9.82;;;2.15;;
30553;SDS011;17335;50.720;7.452;2022-11-21T01:33:47;15.98;;;2.90;;
30553;SDS011;17335;50.720;7.452;2022-11-21T01:36:15;11.95;;;2.60;;
30553;SDS011;17335;50.720;7.452;2022-11-21T01:38:47;12.07;;;2.67;;
30553;SDS011;17335;50.720;7.452;2022-11-21T01:41:16;13.88;;;3.00;;
30553;SDS011;17335;50.720;7.452;2022-11-21T01:43:48;14.57;;;3.10;;
30553;SDS011;17335;50.720;7.452;2022-11-21T01:48:54;8.75;;;2.63;;
30553;SDS011;17335;50.720;7.452;2022-11-21T01:51:33;12.27;;;2.90;;
30553;SDS011;17335;50.720;7.452;2022-11-21T01:54:10;10.07;;;2.80;;
30553;SDS011;17335;50.720;7.452;2022-11-21T01:59:17;7.88;;;3.05;;
30553;SDS011;17335;50.720;7.452;2022-11-21T02:01:52;20.25;;;3.38;;
30553;SDS011;17335;50.720;7.452;2022-11-21T02:04:20;15.73;;;2.83;;
30553;SDS011;17335;50.720;7.452;2022-11-21T02:06:50;11.15;;;2.97;;
30553;SDS011;17335;50.720;7.452;2022-11-21T02:09:17;11.23;;;2.58;;
30553;SDS011;17335;50.720;7.452;2022-11-21T02:11:48;12.80;;;3.22;;
30553;SDS011;17335;50.720;7.452;2022-11-21T02:14:19;13.45;;;2.90;;
30553;SDS011;17335;50.720;7.452;2022-11-21T02:16:46;10.98;;;2.72;;
30553;SDS011;17335;50.720;7.452;2022-11-21T02:19:19;13.38;;;2.85;;
30553;SDS011;17335;50.720;7.452;2022-11-21T02:24:59;12.30;;;3.30;;
30553;SDS011;17335;50.720;7.452;2022-11-21T02:27:25;12.20;;;2.70;;
30553;SDS011;17335;50.720;7.452;2022-11-21T02:29:54;12.63;;;2.75;;
30553;SDS011;17335;50.720;7.452;2022-11-21T02:32:21;10.35;;;2.55;;
30553;SDS011;17335;50.720;7.452;2022-11-21T02:34:49;15.05;;;3.20;;
30553;SDS011;17335;50.720;7.452;2022-11-21T02:37:16;17.25;;;3.92;;
30553;SDS011;17335;50.720;7.452;2022-11-21T02:39:43;15.73;;;2.92;;
30553;SDS011;17335;50.720;7.452;2022-11-21T02:47:41;11.20;;;2.42;;
30553;SDS011;17335;50.720;7.452;2022-11-21T02:50:14;11.73;;;3.13;;
30553;SDS011;17335;50.720;7.452;2022-11-21T02:52:44;11.07;;;3.45;;
30553;SDS011;17335;50.720;7.452;2022-11-21T02:55:11;10.07;;;3.22;;
30553;SDS011;17335;50.720;7.452;2022-11-21T02:57:38;11.25;;;3.15;;
30553;SDS011;17335;50.720;7.452;2022-11-21T03:00:05;16.10;;;3.08;;
30553;SDS011;17335;50.720;7.452;2022-11-21T03:02:32;8.98;;;2.38;;
30553;SDS011;17335;50.720;7.452;2022-11-21T03:04:59;11.25;;;2.47;;
30553;SDS011;17335;50.720;7.452;2022-11-21T03:07:26;14.05;;;3.10;;
30553;SDS011;17335;50.720;7.452;2022-11-21T03:09:53;9.10;;;3.00;;
30553;SDS011;17335;50.720;7.452;2022-11-21T03:12:19;11.48;;;2.70;;
30553;SDS011;17335;50.720;7.452;2022-11-21T03:14:46;12.82;;;3.53;;
30553;SDS011;17335;50.720;7.452;2022-11-21T03:17:12;13.55;;;2.50;;
30553;SDS011;17335;50.720;7.452;2022-11-21T03:19:38;12.52;;;3.17;;
30553;SDS011;17335;50.720;7.452;2022-11-21T03:22:05;11.23;;;2.78;;
30553;SDS011;17335;50.720;7.452;2022-11-21T03:24:32;8.32;;;2.67;;
30553;SDS011;17335;50.720;7.452;2022-11-21T03:26:59;14.27;;;2.40;;
30553;SDS011;17335;50.720;7.452;2022-11-21T03:29:25;10.73;;;2.47;;
30553;SDS011;17335;50.720;7.452;2022-11-21T03:31:52;11.05;;;2.10;;
30553;SDS011;17335;50.720;7.452;2022-11-21T03:34:18;14.52;;;2.47;;
30553;SDS011;17335;50.720;7.452;2022-11-21T03:36:45;9.35;;;2.67;;
30553;SDS011;17335;50.720;7.452;2022-11-21T03:39:11;8.07;;;2.40;;
30553;SDS011;17335;50.720;7.452;2022-11-21T03:41:38;8.60;;;2.30;;
30553;SDS011;17335;50.720;7.452;2022-11-21T03:44:05;12.07;;;2.50;;
30553;SDS011;17335;50.720;7.452;2022-11-21T03:46:34;8.25;;;2.42;;
30553;SDS011;17335;50.720;7.452;2022-11-21T03:49:02;18.13;;;2.45;;
30553;SDS011;17335;50.720;7.452;2022-11-21T03:51:29;9.40;;;2.92;;
30553;SDS011;17335;50.720;7.452;2022-11-21T03:53:56;6.65;;;2.80;;
30553;SDS011;17335;50.720;7.452;2022-11-21T03:56:23;9.65;;;2.72;;
30553;SDS011;17335;50.720;7.452;2022-11-21T03:58:50;11.23;;;2.60;;
30553;SDS011;17335;50.720;7.452;2022-11-21T04:01:18;8.55;;;2.22;;
30553;SDS011;17335;50.720;7.452;2022-11-21T04:03:45;9.05;;;2.53;;
30553;SDS011;17335;50.720;7.452;2022-11-21T04:06:13;13.02;;;2.45;;
30553;SDS011;17335;50.720;7.452;2022-11-21T04:08:41;8.93;;;2.50;;
30553;SDS011;17335;50.720;7.452;2022-11-21T04:11:08;12.02;;;3.05;;
30553;SDS011;17335;50.720;7.452;2022-11-21T04:13:35;8.90;;;2.60;;
30553;SDS011;17335;50.720;7.452;2022-11-21T04:16:02;10.27;;;3.10;;
30553;SDS011;17335;50.720;7.452;2022-11-21T04:18:29;5.72;;;2.08;;
30553;SDS011;17335;50.720;7.452;2022-11-21T04:20:56;5.30;;;1.98;;
30553;SDS011;17335;50.720;7.452;2022-11-21T04:23:27;12.88;;;2.58;;
30553;SDS011;17335;50.720;7.452;2022-11-21T04:25:53;11.95;;;2.80;;
30553;SDS011;17335;50.720;7.452;2022-11-21T04:28:20;9.90;;;2.75;;
30553;SDS011;17335;50.720;7.452;2022-11-21T04:30:47;12.77;;;2.50;;
30553;SDS011;17335;50.720;7.452;2022-11-21T04:33:14;13.77;;;3.15;;
30553;SDS011;17335;50.720;7.452;2022-11-21T04:35:41;8.93;;;2.47;;
30553;SDS011;17335;50.720;7.452;2022-11-21T04:38:09;6.40;;;2.40;;
30553;SDS011;17335;50.720;7.452;2022-11-21T04:40:36;10.32;;;2.58;;
30553;SDS011;17335;50.720;7.452;2022-11-21T04:43:03;8.65;;;2.45;;
30553;SDS011;17335;50.720;7.452;2022-11-21T04:45:30;12.65;;;2.30;;
30553;SDS011;17335;50.720;7.452;2022-11-21T04:47:57;9.50;;;3.05;;
30553;SDS011;17335;50.720;7.452;2022-11-21T04:50:24;7.82;;;2.47;;
30553;SDS011;17335;50.720;7.452;2022-11-21T04:52:50;7.57;;;2.17;;
30553;SDS011;17335;50.720;7.452;2022-11-21T04:55:19;8.27;;;2.20;;
30553;SDS011;17335;50.720;7.452;2022-11-21T04:57:46;10.25;;;2.75;;
30553;SDS011;17335;50.720;7.452;2022-11-21T05:00:14;9.48;;;2.50;;
30553;SDS011;17335;50.720;7.452;2022-11-21T05:02:48;8.55;;;2.08;;
30553;SDS011;17335;50.720;7.452;2022-11-21T05:05:15;12.05;;;2.40;;
30553;SDS011;17335;50.720;7.452;2022-11-21T05:07:42;10.23;;;2.60;;
30553;SDS011;17335;50.720;7.452;2022-11-21T05:10:08;7.03;;;2.42;;
30553;SDS011;17335;50.720;7.452;2022-11-21T05:12:35;12.32;;;2.67;;
30553;SDS011;17335;50.720;7.452;2022-11-21T05:15:20;9.02;;;2.55;;
30553;SDS011;17335;50.720;7.452;2022-11-21T05:17:50;14.20;;;2.38;;
30553;SDS011;17335;50.720;7.452;2022-11-21T05:20:17;12.00;;;2.42;;
30553;SDS011;17335;50.720;7.452;2022-11-21T05:22:44;8.10;;;2.30;;
30553;SDS011;17335;50.720;7.452;2022-11-21T05:25:15;10.20;;;2.08;;
30553;SDS011;17335;50.720;7.452;2022-11-21T05:27:41;10.98;;;2.90;;
30553;SDS011;17335;50.720;7.452;2022-11-21T05:30:09;9.35;;;3.00;;
30553;SDS011;17335;50.720;7.452;2022-11-21T05:32:36;9.43;;;2.88;;
30553;SDS011;17335;50.720;7.452;2022-11-21T05:35:03;10.77;;;3.53;;
30553;SDS011;17335;50.720;7.452;2022-11-21T05:37:30;13.05;;;4.28;;
30553;SDS011;17335;50.720;7.452;2022-11-21T05:39:56;13.20;;;3.63;;
30553;SDS011;17335;50.720;7.452;2022-11-21T05:42:24;9.65;;;3.30;;
30553;SDS011;17335;50.720;7.452;2022-11-21T05:45:09;8.18;;;3.13;;
30553;SDS011;17335;50.720;7.452;2022-11-21T05:47:36;8.77;;;3.80;;
30553;SDS011;17335;50.720;7.452;2022-11-21T05:50:02;8.63;;;2.60;;
30553;SDS011;17335;50.720;7.452;2022-11-21T05:52:30;8.95;;;3.40;;
30553;SDS011;17335;50.720;7.452;2022-11-21T05:54:56;7.55;;;3.17;;
30553;SDS011;17335;50.720;7.452;2022-11-21T05:57:23;9.25;;;3.60;;
30553;SDS011;17335;50.720;7.452;2022-11-21T05:59:49;13.38;;;3.88;;
30553;SDS011;17335;50.720;7.452;2022-11-21T06:02:16;7.90;;;3.55;;
30553;SDS011;17335;50.720;7.452;2022-11-21T06:05:01;11.88;;;3.55;;
30553;SDS011;17335;50.720;7.452;2022-11-21T06:07:27;14.57;;;3.92;;
30553;SDS011;17335;50.720;7.452;2022-11-21T06:09:54;8.50;;;3.53;;
30553;SDS011;17335;50.720;7.452;2022-11-21T06:12:20;11.35;;;3.92;;
30553;SDS011;17335;50.720;7.452;2022-11-21T06:14:50;11.38;;;3.85;;
30553;SDS011;17335;50.720;7.452;2022-11-21T06:17:17;10.52;;;4.30;;
30553;SDS011;17335;50.720;7.452;2022-11-21T06:19:44;16.13;;;4.38;;
30553;SDS011;17335;50.720;7.452;2022-11-21T06:22:10;11.18;;;3.95;;
30553;SDS011;17335;50.720;7.452;2022-11-21T06:24:36;10.70;;;3.78;;
30553;SDS011;17335;50.720;7.452;2022-11-21T06:27:03;12.77;;;3.80;;
30553;SDS011;17335;50.720;7.452;2022-11-21T06:29:29;11.05;;;4.00;;
30553;SDS011;17335;50.720;7.452;2022-11-21T06:31:56;11.13;;;4.10;;
30553;SDS011;17335;50.720;7.452;2022-11-21T06:34:24;9.15;;;3.25;;
30553;SDS011;17335;50.720;7.452;2022-11-21T06:36:52;7.65;;;3.38;;
30553;SDS011;17335;50.720;7.452;2022-11-21T06:39:18;9.88;;;3.30;;
30553;SDS011;17335;50.720;7.452;2022-11-21T06:41:45;7.28;;;3.50;;
30553;SDS011;17335;50.720;7.452;2022-11-21T06:44:17;11.05;;;3.55;;
30553;SDS011;17335;50.720;7.452;2022-11-21T06:46:44;8.68;;;3.80;;
30553;SDS011;17335;50.720;7.452;2022-11-21T06:49:16;9.93;;;3.83;;
30553;SDS011;17335;50.720;7.452;2022-11-21T06:51:43;8.02;;;3.47;;
30553;SDS011;17335;50.720;7.452;2022-11-21T06:54:09;9.50;;;3.63;;
30553;SDS011;17335;50.720;7.452;2022-11-21T06:56:41;10.90;;;3.70;;
30553;SDS011;17335;50.720;7.452;2022-11-21T06:59:08;9.20;;;3.45;;
30553;SDS011;17335;50.720;7.452;2022-11-21T07:01:35;7.43;;;3.53;;
30553;SDS011;17335;50.720;7.452;2022-11-21T07:04:01;10.55;;;3.65;;
30553;SDS011;17335;50.720;7.452;2022-11-21T07:06:28;10.25;;;3.25;;
30553;SDS011;17335;50.720;7.452;2022-11-21T07:08:54;8.00;;;3.35;;
30553;SDS011;17335;50.720;7.452;2022-11-21T07:11:41;9.93;;;3.47;;
30553;SDS011;17335;50.720;7.452;2022-11-21T07:14:08;12.13;;;3.50;;
30553;SDS011;17335;50.720;7.452;2022-11-21T07:16:35;6.70;;;3.38;;
30553;SDS011;17335;50.720;7.452;2022-11-21T07:19:02;6.13;;;3.42;;
30553;SDS011;17335;50.720;7.452;2022-11-21T07:21:28;6.57;;;3.08;;
30553;SDS011;17335;50.720;7.452;2022-11-21T07:23:55;9.63;;;3.90;;
30553;SDS011;17335;50.720;7.452;2022-11-21T07:26:21;11.27;;;3.60;;
30553;SDS011;17335;50.720;7.452;2022-11-21T07:28:48;6.15;;;3.45;;
30553;SDS011;17335;50.720;7.452;2022-11-21T07:31:14;11.07;;;3.30;;
30553;SDS011;17335;50.720;7.452;2022-11-21T07:33:41;6.97;;;3.50;;
30553;SDS011;17335;50.720;7.452;2022-11-21T07:36:09;7.97;;;3.30;;
30553;SDS011;17335;50.720;7.452;2022-11-21T07:38:36;10.88;;;3.45;;
30553;SDS011;17335;50.720;7.452;2022-11-21T07:41:03;4.78;;;3.10;;
30553;SDS011;17335;50.720;7.452;2022-11-21T07:43:29;8.63;;;3.55;;
30553;SDS011;17335;50.720;7.452;2022-11-21T07:45:56;10.00;;;3.88;;
30553;SDS011;17335;50.720;7.452;2022-11-21T07:48:22;8.30;;;3.35;;
30553;SDS011;17335;50.720;7.452;2022-11-21T07:50:49;10.10;;;3.50;;
30553;SDS011;17335;50.720;7.452;2022-11-21T07:53:15;7.38;;;2.83;;
30553;SDS011;17335;50.720;7.452;2022-11-21T07:55:42;5.82;;;3.00;;
30553;SDS011;17335;50.720;7.452;2022-11-21T07:58:09;6.18;;;3.40;;
30553;SDS011;17335;50.720;7.452;2022-11-21T08:00:38;7.40;;;3.35;;
30553;SDS011;17335;50.720;7.452;2022-11-21T08:03:06;8.73;;;3.25;;
30553;SDS011;17335;50.720;7.452;2022-11-21T08:05:37;11.32;;;3.63;;
30553;SDS011;17335;50.720;7.452;2022-11-21T08:08:05;6.75;;;3.30;;
30553;SDS011;17335;50.720;7.452;2022-11-21T08:10:32;6.78;;;2.58;;
30553;SDS011;17335;50.720;7.452;2022-11-21T08:13:02;6.18;;;2.72;;
30553;SDS011;17335;50.720;7.452;2022-11-21T08:15:28;8.02;;;3.20;;
30553;SDS011;17335;50.720;7.452;2022-11-21T08:17:54;7.20;;;3.58;;
30553;SDS011;17335;50.720;7.452;2022-11-21T08:20:21;6.10;;;2.60;;
30553;SDS011;17335;50.720;7.452;2022-11-21T08:22:47;5.22;;;2.70;;
30553;SDS011;17335;50.720;7.452;2022-11-21T08:25:14;5.85;;;2.70;;
30553;SDS011;17335;50.720;7.452;2022-11-21T08:27:40;9.30;;;2.97;;
30553;SDS011;17335;50.720;7.452;2022-11-21T08:30:08;5.55;;;3.25;;
30553;SDS011;17335;50.720;7.452;2022-11-21T08:32:36;5.55;;;2.65;;
30553;SDS011;17335;50.720;7.452;2022-11-21T08:35:03;10.38;;;3.35;;
30553;SDS011;17335;50.720;7.452;2022-11-21T08:37:30;6.07;;;2.80;;
30553;SDS011;17335;50.720;7.452;2022-11-21T08:39:57;10.05;;;3.40;;
30553;SDS011;17335;50.720;7.452;2022-11-21T08:42:27;5.82;;;2.42;;
30553;SDS011;17335;50.720;7.452;2022-11-21T08:44:53;5.78;;;2.70;;
30553;SDS011;17335;50.720;7.452;2022-11-21T08:47:20;7.97;;;2.72;;
30553;SDS011;17335;50.720;7.452;2022-11-21T08:49:46;4.65;;;2.42;;
30553;SDS011;17335;50.720;7.452;2022-11-21T08:52:13;4.55;;;2.03;;
30553;SDS011;17335;50.720;7.452;2022-11-21T08:54:42;5.97;;;2.13;;
30553;SDS011;17335;50.720;7.452;2022-11-21T08:57:10;4.57;;;2.20;;
30553;SDS011;17335;50.720;7.452;2022-11-21T08:59:36;4.13;;;2.13;;
30553;SDS011;17335;50.720;7.452;2022-11-21T09:02:03;4.45;;;2.25;;
30553;SDS011;17335;50.720;7.452;2022-11-21T09:04:29;3.25;;;1.77;;
30553;SDS011;17335;50.720;7.452;2022-11-21T09:06:56;3.45;;;1.88;;
30553;SDS011;17335;50.720;7.452;2022-11-21T09:09:22;6.15;;;2.05;;
30553;SDS011;17335;50.720;7.452;2022-11-21T09:11:51;6.28;;;2.00;;
30553;SDS011;17335;50.720;7.452;2022-11-21T09:14:17;5.00;;;2.00;;
30553;SDS011;17335;50.720;7.452;2022-11-21T09:17:02;6.68;;;2.10;;
30553;SDS011;17335;50.720;7.452;2022-11-21T09:19:47;8.25;;;2.00;;
30553;SDS011;17335;50.720;7.452;2022-11-21T09:22:14;3.67;;;1.85;;
30553;SDS011;17335;50.720;7.452;2022-11-21T09:24:40;4.88;;;1.80;;
30553;SDS011;17335;50.720;7.452;2022-11-21T09:27:07;4.07;;;1.70;;
30553;SDS011;17335;50.720;7.452;2022-11-21T09:29:33;4.32;;;1.60;;
30553;SDS011;17335;50.720;7.452;2022-11-21T09:32:00;4.38;;;1.70;;
30553;SDS011;17335;50.720;7.452;2022-11-21T09:34:26;3.50;;;1.60;;
30553;SDS011;17335;50.720;7.452;2022-11-21T09:36:53;2.88;;;1.45;;
30553;SDS011;17335;50.720;7.452;2022-11-21T09:39:20;3.92;;;1.85;;
30553;SDS011;17335;50.720;7.452;2022-11-21T09:47:16;3.35;;;1.48;;
30553;SDS011;17335;50.720;7.452;2022-11-21T09:49:45;2.28;;;1.35;;
30553;SDS011;17335;50.720;7.452;2022-11-21T09:52:18;3.40;;;1.40;;
30553;SDS011;17335;50.720;7.452;2022-11-21T09:54:51;6.13;;;2.00;;
30553;SDS011;17335;50.720;7.452;2022-11-21T09:57:23;2.72;;;1.50;;
30553;SDS011;17335;50.720;7.452;2022-11-21T09:59:58;2.60;;;1.35;;
30553;SDS011;17335;50.720;7.452;2022-11-21T10:02:28;3.30;;;1.40;;
30553;SDS011;17335;50.720;7.452;2022-11-21T10:04:54;3.20;;;1.42;;
30553;SDS011;17335;50.720;7.452;2022-11-21T10:07:26;2.78;;;1.55;;
30553;SDS011;17335;50.720;7.452;2022-11-21T10:12:39;5.82;;;1.50;;
30553;SDS011;17335;50.720;7.452;2022-11-21T10:24:18;5.38;;;1.50;;
30553;SDS011;17335;50.720;7.452;2022-11-21T10:26:59;3.58;;;1.63;;
30553;SDS011;17335;50.720;7.452;2022-11-21T10:32:25;3.90;;;1.40;;
30553;SDS011;17335;50.720;7.452;2022-11-21T10:34:57;2.78;;;1.40;;
30553;SDS011;17335;50.720;7.452;2022-11-21T10:42:56;2.15;;;1.42;;
30553;SDS011;17335;50.720;7.452;2022-11-21T10:45:46;7.32;;;1.77;;
30553;SDS011;17335;50.720;7.452;2022-11-21T10:48:13;3.50;;;1.92;;
30553;SDS011;17335;50.720;7.452;2022-11-21T10:50:49;4.22;;;1.40;;
30553;SDS011;17335;50.720;7.452;2022-11-21T10:53:20;4.55;;;1.60;;
30553;SDS011;17335;50.720;7.452;2022-11-21T10:56:19;2.28;;;1.15;;
30553;SDS011;17335;50.720;7.452;2022-11-21T10:58:50;2.83;;;1.50;;
30553;SDS011;17335;50.720;7.452;2022-11-21T11:06:54;2.80;;;1.60;;
30553;SDS011;17335;50.720;7.452;2022-11-21T11:09:23;2.20;;;1.40;;
30553;SDS011;17335;50.720;7.452;2022-11-21T11:14:41;3.97;;;1.38;;
30553;SDS011;17335;50.720;7.452;2022-11-21T11:17:16;2.65;;;1.35;;
30553;SDS011;17335;50.720;7.452;2022-11-21T11:20:05;3.35;;;1.40;;
30553;SDS011;17335;50.720;7.452;2022-11-21T11:22:53;4.15;;;1.50;;
30553;SDS011;17335;50.720;7.452;2022-11-21T11:25:21;3.05;;;1.30;;
30553;SDS011;17335;50.720;7.452;2022-11-21T11:27:48;3.22;;;1.70;;
30553;SDS011;17335;50.720;7.452;2022-11-21T11:30:15;4.70;;;1.38;;
30553;SDS011;17335;50.720;7.452;2022-11-21T11:32:43;4.25;;;1.20;;
30553;SDS011;17335;50.720;7.452;2022-11-21T11:37:42;4.20;;;1.50;;
30553;SDS011;17335;50.720;7.452;2022-11-21T11:40:35;4.00;;;1.30;;
30553;SDS011;17335;50.720;7.452;2022-11-21T11:43:24;2.75;;;1.10;;
30553;SDS011;17335;50.720;7.452;2022-11-21T11:49:35;1.98;;;1.17;;
30553;SDS011;17335;50.720;7.452;2022-11-21T11:52:24;2.47;;;1.10;;
30553;SDS011;17335;50.720;7.452;2022-11-21T11:54:58;2.30;;;1.27;;
30553;SDS011;17335;50.720;7.452;2022-11-21T11:57:30;3.27;;;1.70;;
30553;SDS011;17335;50.720;7.452;2022-11-21T12:00:15;2.00;;;1.30;;
30553;SDS011;17335;50.720;7.452;2022-11-21T12:02:57;3.67;;;1.63;;
30553;SDS011;17335;50.720;7.452;2022-11-21T12:05:29;5.63;;;1.40;;
30553;SDS011;17335;50.720;7.452;2022-11-21T12:08:18;3.60;;;1.30;;
30553;SDS011;17335;50.720;7.452;2022-11-21T12:11:16;2.72;;;1.20;;
30553;SDS011;17335;50.720;7.452;2022-11-21T12:14:12;5.85;;;1.67;;
30553;SDS011;17335;50.720;7.452;2022-11-21T12:17:06;3.88;;;1.30;;
30553;SDS011;17335;50.720;7.452;2022-11-21T12:19:35;3.65;;;1.33;;
30553;SDS011;17335;50.720;7.452;2022-11-21T12:22:04;3.15;;;1.27;;
30553;SDS011;17335;50.720;7.452;2022-11-21T12:24:32;5.25;;;1.38;;
30553;SDS011;17335;50.720;7.452;2022-11-21T12:27:26;6.22;;;1.50;;
30553;SDS011;17335;50.720;7.452;2022-11-21T12:33:00;4.65;;;1.33;;
30553;SDS011;17335;50.720;7.452;2022-11-21T12:52:58;21.95;;;8.88;;
30553;SDS011;17335;50.720;7.452;2022-11-21T12:56:04;26.98;;;9.68;;
30553;SDS011;17335;50.720;7.452;2022-11-21T12:58:40;29.25;;;11.00;;
30553;SDS011;17335;50.720;7.452;2022-11-21T13:01:22;8.15;;;3.28;;
30553;SDS011;17335;50.720;7.452;2022-11-21T13:03:57;6.53;;;2.15;;
30553;SDS011;17335;50.720;7.452;2022-11-21T13:06:31;3.65;;;1.52;;
30553;SDS011;17335;50.720;7.452;2022-11-21T13:09:03;3.13;;;1.63;;
30553;SDS011;17335;50.720;7.452;2022-11-21T13:12:17;2.63;;;1.40;;
30553;SDS011;17335;50.720;7.452;2022-11-21T13:22:47;4.13;;;1.30;;
30553;SDS011;17335;50.720;7.452;2022-11-21T13:30:47;3.90;;;1.30;;
30553;SDS011;17335;50.720;7.452;2022-11-21T13:36:00;2.63;;;1.20;;
30553;SDS011;17335;50.720;7.452;2022-11-21T13:42:02;2.25;;;1.20;;
30553;SDS011;17335;50.720;7.452;2022-11-21T13:44:45;7.53;;;1.70;;
30553;SDS011;17335;50.720;7.452;2022-11-21T13:49:54;3.97;;;1.27;;
30553;SDS011;17335;50.720;7.452;2022-11-21T14:06:39;3.78;;;1.38;;
30553;SDS011;17335;50.720;7.452;2022-11-21T14:09:20;2.78;;;1.13;;
30553;SDS011;17335;50.720;7.452;2022-11-21T14:11:53;6.20;;;1.52;;
30553;SDS011;17335;50.720;7.452;2022-11-21T14:14:39;4.28;;;1.27;;
30553;SDS011;17335;50.720;7.452;2022-11-21T14:22:46;7.55;;;1.67;;
30553;SDS011;17335;50.720;7.452;2022-11-21T14:25:22;6.20;;;1.73;;
30553;SDS011;17335;50.720;7.452;2022-11-21T14:27:54;5.93;;;1.60;;
30553;SDS011;17335;50.720;7.452;2022-11-21T14:30:40;4.90;;;1.33;;
30553;SDS011;17335;50.720;7.452;2022-11-21T14:33:21;7.80;;;1.60;;
30553;SDS011;17335;50.720;7.452;2022-11-21T14:36:17;9.88;;;2.40;;
30553;SDS011;17335;50.720;7.452;2022-11-21T14:38:46;10.63;;;2.13;;
30553;SDS011;17335;50.720;7.452;2022-11-21T14:41:37;9.95;;;1.67;;
30553;SDS011;17335;50.720;7.452;2022-11-21T14:44:05;6.57;;;1.85;;
30553;SDS011;17335;50.720;7.452;2022-11-21T14:46:40;11.52;;;1.80;;
30553;SDS011;17335;50.720;7.452;2022-11-21T14:54:30;6.63;;;2.13;;
30553;SDS011;17335;50.720;7.452;2022-11-21T14:57:00;7.32;;;1.85;;
30553;SDS011;17335;50.720;7.452;2022-11-21T14:59:32;5.13;;;1.75;;
30553;SDS011;17335;50.720;7.452;2022-11-21T15:04:42;4.95;;;1.70;;
30553;SDS011;17335;50.720;7.452;2022-11-21T15:09:56;5.10;;;1.65;;
30553;SDS011;17335;50.720;7.452;2022-11-21T15:18:05;5.38;;;1.75;;
30553;SDS011;17335;50.720;7.452;2022-11-21T15:20:54;7.18;;;1.60;;
30553;SDS011;17335;50.720;7.452;2022-11-21T15:23:34;9.48;;;1.70;;
30553;SDS011;17335;50.720;7.452;2022-11-21T15:26:24;8.75;;;1.98;;
30553;SDS011;17335;50.720;7.452;2022-11-21T15:28:57;3.58;;;1.65;;
30553;SDS011;17335;50.720;7.452;2022-11-21T15:31:25;6.38;;;1.63;;
30553;SDS011;17335;50.720;7.452;2022-11-21T15:34:02;9.93;;;1.90;;
30553;SDS011;17335;50.720;7.452;2022-11-21T15:39:43;6.32;;;1.85;;
30553;SDS011;17335;50.720;7.452;2022-11-21T15:48:01;9.15;;;2.38;;
30553;SDS011;17335;50.720;7.452;2022-11-21T15:50:32;7.10;;;2.63;;
30553;SDS011;17335;50.720;7.452;2022-11-21T15:53:00;5.20;;;1.48;;
30553;SDS011;17335;50.720;7.452;2022-11-21T15:55:26;5.25;;;1.80;;
30553;SDS011;17335;50.720;7.452;2022-11-21T15:57:56;6.32;;;1.95;;
30553;SDS011;17335;50.720;7.452;2022-11-21T16:00:23;4.82;;;1.50;;
30553;SDS011;17335;50.720;7.452;2022-11-21T16:02:49;6.35;;;1.88;;
30553;SDS011;17335;50.720;7.452;2022-11-21T16:05:16;5.65;;;1.75;;
30553;SDS011;17335;50.720;7.452;2022-11-21T16:07:42;4.95;;;2.20;;
30553;SDS011;17335;50.720;7.452;2022-11-21T16:10:09;3.83;;;1.77;;
30553;SDS011;17335;50.720;7.452;2022-11-21T16:12:48;5.50;;;1.63;;
30553;SDS011;17335;50.720;7.452;2022-11-21T16:15:14;6.47;;;2.08;;
30553;SDS011;17335;50.720;7.452;2022-11-21T16:17:40;9.38;;;2.08;;
30553;SDS011;17335;50.720;7.452;2022-11-21T16:20:07;8.20;;;1.75;;
30553;SDS011;17335;50.720;7.452;2022-11-21T16:22:34;3.78;;;1.70;;
30553;SDS011;17335;50.720;7.452;2022-11-21T16:25:02;10.27;;;2.30;;
30553;SDS011;17335;50.720;7.452;2022-11-21T16:27:30;8.07;;;2.45;;
30553;SDS011;17335;50.720;7.452;2022-11-21T16:29:57;4.22;;;1.77;;
30553;SDS011;17335;50.720;7.452;2022-11-21T16:32:24;6.63;;;1.60;;
30553;SDS011;17335;50.720;7.452;2022-11-21T16:34:51;5.65;;;1.73;;
30553;SDS011;17335;50.720;7.452;2022-11-21T16:37:19;7.47;;;1.65;;
30553;SDS011;17335;50.720;7.452;2022-11-21T16:39:46;5.15;;;1.88;;
30553;SDS011;17335;50.720;7.452;2022-11-21T16:42:17;8.57;;;2.20;;
30553;SDS011;17335;50.720;7.452;2022-11-21T16:44:44;9.23;;;2.47;;
30553;SDS011;17335;50.720;7.452;2022-11-21T16:47:12;8.25;;;2.78;;
30553;SDS011;17335;50.720;7.452;2022-11-21T16:49:39;7.80;;;3.65;;
30553;SDS011;17335;50.720;7.452;2022-11-21T16:52:09;8.90;;;3.03;;
30553;SDS011;17335;50.720;7.452;2022-11-21T16:54:36;9.50;;;2.92;;
30553;SDS011;17335;50.720;7.452;2022-11-21T16:57:02;10.77;;;2.47;;
30553;SDS011;17335;50.720;7.452;2022-11-21T16:59:30;10.82;;;4.35;;
30553;SDS011;17335;50.720;7.452;2022-11-21T17:01:58;39.42;;;19.48;;
30553;SDS011;17335;50.720;7.452;2022-11-21T17:04:25;23.30;;;10.00;;
30553;SDS011;17335;50.720;7.452;2022-11-21T17:06:51;11.30;;;5.93;;
30553;SDS011;17335;50.720;7.452;2022-11-21T17:09:18;12.30;;;5.88;;
30553;SDS011;17335;50.720;7.452;2022-11-21T17:11:44;11.80;;;5.28;;
30553;SDS011;17335;50.720;7.452;2022-11-21T17:14:11;12.50;;;4.35;;
30553;SDS011;17335;50.720;7.452;2022-11-21T17:16:38;8.52;;;2.83;;
30553;SDS011;17335;50.720;7.452;2022-11-21T17:19:08;9.68;;;2.97;;
30553;SDS011;17335;50.720;7.452;2022-11-21T17:21:36;6.57;;;2.92;;